CheckWX is a tool to help pilots better visualize weather data.  It is not intended as a substitute for an official pre-flight weather briefing.

07:42:51 UTC

8D3 METAR
Sisseton Municipal Airport
Sisseton, South Dakota, USA
Current

47 mins ago

K8D3 210656Z AUTO 15013KT M13/M17 A3033 RMK AO1 SLP318 T11281172
Observed
Jan-21 @ 06:56 UTC
Wind
  • 150° at 13 KTS
Visibility
Temperature
-13°C / 9°F
Dewpoint
-17°C / 1°F
Humidity
72%
Altimeter
30.33" Hg
Pressure
1027.12 hPa
Previous

2 hours ago

K8D3 210556Z AUTO 18010KT M14/M19 A3038 RMK AO1 SLP337 T11391189 11139 21211 411391256 56021
Observed
Jan-21 @ 05:56 UTC
Wind
  • 180° at 10 KTS
Visibility
Temperature
-14°C / 7°F
Dewpoint
-19°C / -2°F
Humidity
66%
Altimeter
30.38" Hg
Pressure
1028.82 hPa
Previous

3 hours ago

K8D3 210456Z AUTO 17013KT M15/M19 A3040 RMK AO1 SLP347 T11501189
Observed
Jan-21 @ 04:56 UTC
Wind
  • 170° at 13 KTS
Visibility
Temperature
-15°C / 5°F
Dewpoint
-19°C / -2°F
Humidity
72%
Altimeter
30.4" Hg
Pressure
1029.42 hPa